CheckWX is a tool to help pilots better visualize weather data.  It is not intended as a substitute for an official pre-flight weather briefing.

09:25:15 UTC

KPDT METAR
Eastern Oregon Regional at Pendleton Airport
Pendleton, Oregon, USA
Current

32 mins ago

KPDT 220853Z AUTO 14004KT 10SM BKN021 OVC080 11/08 A2979 RMK AO2 SLP081 60000 T01060083 51006
Observed
May-22 @ 08:53 UTC
Wind
  • 140° at 4 KTS
Visibility
10 SM
Flight Rules
MVFR
Cloud Levels
  • Broken at 2,100' AGL
  • Overcast at 8,000' AGL
Temperature
11°C / 52°F
Dewpoint
C / 46°F
Humidity
82%
Altimeter
29.79" Hg
Pressure
1008.82 hPa
Previous

2 hours ago

KPDT 220753Z AUTO 13004KT 10SM BKN080 OVC095 11/09 A2978 RMK AO2 SLP077 T01060089 401440083
Observed
May-22 @ 07:53 UTC
Wind
  • 130° at 4 KTS
Visibility
10 SM
Flight Rules
VFR
Cloud Levels
  • Broken at 8,000' AGL
  • Overcast at 9,500' AGL
Temperature
11°C / 52°F
Dewpoint
C / 48°F
Humidity
88%
Altimeter
29.78" Hg
Pressure
1008.42 hPa
Previous

3 hours ago

KPDT 220653Z 27003KT 10SM BKN075 OVC095 11/08 A2977 RMK AO2 RAE04 SLP075 P0000 T01060083
Observed
May-22 @ 06:53 UTC
Wind
  • 270° at 3 KTS
Visibility
10 SM
Flight Rules
VFR
Cloud Levels
  • Broken at 7,500' AGL
  • Overcast at 9,500' AGL
Temperature
11°C / 52°F
Dewpoint
C / 46°F
Humidity
82%
Altimeter
29.77" Hg
Pressure
1008.12 hPa
Current Rain
0.01"